Leonardo — IAZA — position and weather

sailwx.info

Track history (hours):
 
Tides and Currents Weather Stations Pressure Air Temp Water Temp Dewpoint Dewpoint Depression Visibility Wind Speed Wind Dir Waves Ship Positions

Leonardo

Last reported at 2014-Sep-23 15:33 UTC. Time now 2014-Sep-23 16:26 UTC.
Position N 43°25' E 009°53'.

Length 28 m; draft 2.7 m.

MMSI: 247155800.

Date/timePositionNaut miles runAvg speedWind from/ knotsBaromVisibWave heightAir tempDewpointWater temp
2014-Sep-23 15:33N 43°25' E 009°53'1 0.9
2014-Sep-23 14:33N 43°26' E 009°53'0 0.1
2014-Sep-23 13:33N 43°26' E 009°53'1 1.0
2014-Sep-23 12:34N 43°27' E 009°54'7 7.5
2014-Sep-23 11:34N 43°29' E 010°04'9 8.6
2014-Sep-23 10:34N 43°31' E 010°15'3 2.6
2014-Sep-23 09:31N 43°33' E 010°19'0 0.0
2014-Sep-23 08:33N 43°33' E 010°19'0 0.0
2014-Sep-23 07:33N 43°33' E 010°19'0 0.0
2014-Sep-23 06:32N 43°33' E 010°19'0 0.0
2014-Sep-23 05:32N 43°33' E 010°19'0 0.0
2014-Sep-23 04:28N 43°33' E 010°19'0 0.0
2014-Sep-23 03:22N 43°33' E 010°19'0 0.0
2014-Sep-23 02:28N 43°33' E 010°19'0 0.0
2014-Sep-23 01:33N 43°33' E 010°19'0 0.0
2014-Sep-23 00:33N 43°33' E 010°19'0 0.0
2014-Sep-22 23:32N 43°33' E 010°19'0 0.0
2014-Sep-22 22:32N 43°33' E 010°19'1 0.4
2014-Sep-22 21:16N 43°33' E 010°18'0 0.0
2014-Sep-22 20:31N 43°33' E 010°18'0 0.0
2014-Sep-22 19:21N 43°33' E 010°18'0 0.0
2014-Sep-22 18:18N 43°33' E 010°18'0 0.0
2014-Sep-22 17:33N 43°33' E 010°18'0 0.0
2014-Sep-22 16:32N 43°33' E 010°18'0 0.0
2014-Sep-22 15:29N 43°33' E 010°18'2 2.5
2014-Sep-22 14:34N 43°31' E 010°16'8 8.0
2014-Sep-22 13:33N 43°28' E 010°06'8 7.6
2014-Sep-22 12:30N 43°26' E 009°55'0 0.1
2014-Sep-22 11:34N 43°26' E 009°55'0 0.1
2014-Sep-22 10:33N 43°26' E 009°55'1 0.7
2014-Sep-22 09:33N 43°26' E 009°56'7 6.7
2014-Sep-22 08:33N 43°28' E 010°05'7 6.9
2014-Sep-22 07:33N 43°30' E 010°14'4 4.2
2014-Sep-22 06:33N 43°33' E 010°18'0 0.1
2014-Sep-22 05:32N 43°33' E 010°18'0 0.0
2014-Sep-22 04:32N 43°33' E 010°18'0 0.0
2014-Sep-22 03:29N 43°33' E 010°18'0 0.0
2014-Sep-22 02:31N 43°33' E 010°18'0 0.0
2014-Sep-22 01:31N 43°33' E 010°18'0 0.0
2014-Sep-22 00:30N 43°33' E 010°18'0 0.0
2014-Sep-21 23:33N 43°33' E 010°18'0 0.0
2014-Sep-21 22:32N 43°33' E 010°18'0 0.0
2014-Sep-21 21:32N 43°33' E 010°18'0 0.0
2014-Sep-21 20:32N 43°33' E 010°18'0 0.0
2014-Sep-21 19:31N 43°33' E 010°18'0 0.0
2014-Sep-21 18:31N 43°33' E 010°18'0 0.0
2014-Sep-21 17:30N 43°33' E 010°18'0 0.0
2014-Sep-21 16:30N 43°33' E 010°18'0 0.0
2014-Sep-21 15:32N 43°33' E 010°18'0 0.0
2014-Sep-21 14:32N 43°33' E 010°18'0 0.0
2014-Sep-21 13:32N 43°33' E 010°18'0 0.0
2014-Sep-21 12:31N 43°33' E 010°18'0 0.0
2014-Sep-21 11:31N 43°33' E 010°18'0 0.0
2014-Sep-21 10:33N 43°33' E 010°18'0 0.0
2014-Sep-21 09:30N 43°33' E 010°18'0 0.0
2014-Sep-21 08:29N 43°33' E 010°18'0 0.0
2014-Sep-21 07:32N 43°33' E 010°18'0 0.0
2014-Sep-21 06:31N 43°33' E 010°18'0 0.0
2014-Sep-21 05:31N 43°33' E 010°18'0 0.0
2014-Sep-21 04:31N 43°33' E 010°18'0 0.0
2014-Sep-21 03:33N 43°33' E 010°18'0 0.0
2014-Sep-21 02:33N 43°33' E 010°18'0 0.0
2014-Sep-21 01:32N 43°33' E 010°18'0 0.0
2014-Sep-21 00:32N 43°33' E 010°18'0 0.0
2014-Sep-20 23:31N 43°33' E 010°18'0 0.0
2014-Sep-20 22:31N 43°33' E 010°18'0 0.0
2014-Sep-20 21:28N 43°33' E 010°18'0 0.0
2014-Sep-20 20:33N 43°33' E 010°18'0 0.0
2014-Sep-20 19:33N 43°33' E 010°18'0 0.0
2014-Sep-20 18:33N 43°33' E 010°18'3 3.1
2014-Sep-20 17:32N 43°31' E 010°15'8 7.7
2014-Sep-20 16:33N 43°28' E 010°05'8 8.0
2014-Sep-20 15:33N 43°25' E 009°55'1 1.2
2014-Sep-20 14:33N 43°25' E 009°53'1 1.2
2014-Sep-20 13:33N 43°24' E 009°54'1 1.2
2014-Sep-20 12:33N 43°25' E 009°54'0 0.2
2014-Sep-20 11:33N 43°25' E 009°55'1 0.7
2014-Sep-20 10:33N 43°26' E 009°55'0 0.0
2014-Sep-20 09:33N 43°26' E 009°55'3 2.5
2014-Sep-20 08:33N 43°27' E 009°58'8 8.0
2014-Sep-20 07:33N 43°30' E 010°08'1 1.5
2014-Sep-20 06:33N 43°31' E 010°10'6 6.4
2014-Sep-20 05:33N 43°33' E 010°18'0 0.0
2014-Sep-20 04:30N 43°33' E 010°18'0 0.0
2014-Sep-20 03:32N 43°33' E 010°18'0 0.0
2014-Sep-20 02:32N 43°33' E 010°18'0 0.0
2014-Sep-20 01:31N 43°33' E 010°18'0 0.0
2014-Sep-20 00:31N 43°33' E 010°18'0 0.0
2014-Sep-19 23:30N 43°33' E 010°18'0 0.0
2014-Sep-19 22:27N 43°33' E 010°18'0 0.0
2014-Sep-19 21:27N 43°33' E 010°18'0 0.0
2014-Sep-19 20:32N 43°33' E 010°18'0 0.0
2014-Sep-19 19:32N 43°33' E 010°18'0 0.0
2014-Sep-19 18:31N 43°33' E 010°18'0 0.0
2014-Sep-19 17:28N 43°33' E 010°18'0 0.0
2014-Sep-19 16:30N 43°33' E 010°18'0 0.1
2014-Sep-19 15:30N 43°33' E 010°18'0 0.0
2014-Sep-19 14:33N 43°33' E 010°18'0 0.0
2014-Sep-19 13:29N 43°33' E 010°18'0 0.0
2014-Sep-19 12:32N 43°33' E 010°18'0 0.0
2014-Sep-19 11:31N 43°33' E 010°18'0 0.0
2014-Sep-19 10:31N 43°33' E 010°18'0 0.0
2014-Sep-19 09:30N 43°33' E 010°18'0 0.0
2014-Sep-19 08:33N 43°33' E 010°18'0 0.0
2014-Sep-19 07:33N 43°33' E 010°18'0 0.0
2014-Sep-19 06:32N 43°33' E 010°18'0 0.0
2014-Sep-19 05:29N 43°33' E 010°18'0 0.0
2014-Sep-19 04:31N 43°33' E 010°18'0 0.0
2014-Sep-19 03:31N 43°33' E 010°18'0 0.0
2014-Sep-19 02:30N 43°33' E 010°18'0 0.0
2014-Sep-19 01:33N 43°33' E 010°18'0 0.0
2014-Sep-19 00:33N 43°33' E 010°18'0 0.0
2014-Sep-18 23:32N 43°33' E 010°18'0 0.0
2014-Sep-18 22:32N 43°33' E 010°18'0 0.0
2014-Sep-18 21:31N 43°33' E 010°18'0 0.0
2014-Sep-18 20:31N 43°33' E 010°18'0 0.0
2014-Sep-18 19:24N 43°33' E 010°18'0 0.0
2014-Sep-18 18:33N 43°33' E 010°18'0 0.0
2014-Sep-18 17:32N 43°33' E 010°18'0 0.0
2014-Sep-18 16:29N 43°33' E 010°18'0 0.0
2014-Sep-18 15:29N 43°33' E 010°18'0 0.0
2014-Sep-18 14:33N 43°33' E 010°18'0 0.0
2014-Sep-18 13:33N 43°33' E 010°18'5 5.3
2014-Sep-18 12:34N 43°30' E 010°12'8 7.5
2014-Sep-18 11:32N 43°28' E 010°02'6 5.8
2014-Sep-18 10:33N 43°27' E 009°54'1 1.0
2014-Sep-18 09:34N 43°26' E 009°55'0 0.2
2014-Sep-18 08:33N 43°26' E 009°55'1 0.7
2014-Sep-18 07:34N 43°26' E 009°56'7 7.2
2014-Sep-18 06:33N 43°28' E 010°05'8 8.1
2014-Sep-18 05:33N 43°32' E 010°15'2 2.2
2014-Sep-18 04:31N 43°33' E 010°18'0 0.0
2014-Sep-18 03:31N 43°33' E 010°18'0 0.0
2014-Sep-18 02:33N 43°33' E 010°18'0 0.0
2014-Sep-18 01:33N 43°33' E 010°18'0 0.0
2014-Sep-18 00:32N 43°33' E 010°18'0 0.0
2014-Sep-17 23:32N 43°33' E 010°18'0 0.0
2014-Sep-17 22:32N 43°33' E 010°18'0 0.0
2014-Sep-17 21:31N 43°33' E 010°18'0 0.0
2014-Sep-17 20:28N 43°33' E 010°18'0 0.0
2014-Sep-17 19:33N 43°33' E 010°18'0 0.0
2014-Sep-17 18:33N 43°33' E 010°18'0 0.0
2014-Sep-17 17:33N 43°33' E 010°18'5 5.0
2014-Sep-17 16:33N 43°30' E 010°13'8 8.1
2014-Sep-17 15:33N 43°27' E 010°02'5 5.2
2014-Sep-17 14:33N 43°26' E 009°55'0 0.0
2014-Sep-17 13:33N 43°26' E 009°55'4 4.2
2014-Sep-17 12:33N 43°30' E 009°56'8 7.8
2014-Sep-17 11:33N 43°38' E 009°54'8 8.0
2014-Sep-17 10:33N 43°46' E 009°54'8 7.7
2014-Sep-17 09:33N 43°53' E 009°53'3 2.8
2014-Sep-17 08:33N 43°56' E 009°53'4 4.2
2014-Sep-17 07:33N 44°00' E 009°53'6 6.1
2014-Sep-17 06:33N 44°06' E 009°49'0 0.0
2014-Sep-17 05:33N 44°06' E 009°49'0 0.0
2014-Sep-17 04:30N 44°06' E 009°49'0 0.0
2014-Sep-17 03:33N 44°06' E 009°49'0 0.0
2014-Sep-17 02:32N 44°06' E 009°49'0 0.0
2014-Sep-17 01:32N 44°06' E 009°49'0 0.0
2014-Sep-17 00:31N 44°06' E 009°49'0 0.0
2014-Sep-16 23:31N 44°06' E 009°49'0 0.0
2014-Sep-16 22:30N 44°06' E 009°49'0 0.0
2014-Sep-16 21:33N 44°06' E 009°49'0 0.0
2014-Sep-16 20:33N 44°06' E 009°49'0 0.0
2014-Sep-16 19:32N 44°06' E 009°49'0 0.0
2014-Sep-16 18:32N 44°06' E 009°49'0 0.0
2014-Sep-16 17:31N 44°06' E 009°49'0 0.0
2014-Sep-16 16:31N 44°06' E 009°49'0 0.0
2014-Sep-16 15:33N 44°06' E 009°49'0 0.0
2014-Sep-16 14:30N 44°06' E 009°49'0 0.0
2014-Sep-16 13:32N 44°06' E 009°49'0 0.0
2014-Sep-16 12:32N 44°06' E 009°49'0 0.1
2014-Sep-16 11:32N 44°06' E 009°49'0 0.0
2014-Sep-16 10:31N 44°06' E 009°49'0 0.0
2014-Sep-16 09:31N 44°06' E 009°49'0 0.0
2014-Sep-16 08:33N 44°06' E 009°49'0 0.0
2014-Sep-16 07:33N 44°06' E 009°49'0 0.0
2014-Sep-16 06:32N 44°06' E 009°49'0 0.0
2014-Sep-16 05:29N 44°06' E 009°49'0 0.0
2014-Sep-16 04:32N 44°06' E 009°49'0 0.0
2014-Sep-16 03:31N 44°06' E 009°49'0 0.0
2014-Sep-16 02:31N 44°06' E 009°49'0 0.0
2014-Sep-16 01:33N 44°06' E 009°49'0 0.0
2014-Sep-16 00:33N 44°06' E 009°49'0 0.0
2014-Sep-15 23:32N 44°06' E 009°49'0 0.0
2014-Sep-15 22:32N 44°06' E 009°49'0 0.0
2014-Sep-15 21:28N 44°06' E 009°49'0 0.0
2014-Sep-15 20:31N 44°06' E 009°49'0 0.0
2014-Sep-15 19:31N 44°06' E 009°49'0 0.0
2014-Sep-15 18:33N 44°06' E 009°49'0 0.0
2014-Sep-15 17:33N 44°06' E 009°49'0 0.0
2014-Sep-15 16:32N 44°06' E 009°49'0 0.0
2014-Sep-15 15:32N 44°06' E 009°49'0 0.0
2014-Sep-15 14:32N 44°06' E 009°49'0 0.0
2014-Sep-15 13:31N 44°06' E 009°49'0 0.0
2014-Sep-15 12:31N 44°06' E 009°49'0 0.3
2014-Sep-15 11:33N 44°05' E 009°50'0 0.0
2014-Sep-15 10:33N 44°05' E 009°50'0 0.0
2014-Sep-15 09:33N 44°05' E 009°50'0 0.0
2014-Sep-15 08:34N 44°05' E 009°50'0 0.0
2014-Sep-15 07:34N 44°05' E 009°50'0 0.0
2014-Sep-15 06:34N 44°05' E 009°50'2 1.6
2014-Sep-15 05:31N 44°06' E 009°52'0 0.0
2014-Sep-15 04:33N 44°06' E 009°52'0 0.0
2014-Sep-15 03:33N 44°06' E 009°52'0 0.0
2014-Sep-15 02:32N 44°06' E 009°52'0 0.0
2014-Sep-15 01:32N 44°06' E 009°52'0 0.0
2014-Sep-15 00:31N 44°06' E 009°52'0 0.0
2014-Sep-14 23:31N 44°06' E 009°52'0 0.0
2014-Sep-14 22:34N 44°06' E 009°52'0 0.0
2014-Sep-14 21:33N 44°06' E 009°52'0 0.0
2014-Sep-14 20:33N 44°06' E 009°52'0 0.0
2014-Sep-14 19:32N 44°06' E 009°52'0 0.0
2014-Sep-14 18:32N 44°06' E 009°52'0 0.0
2014-Sep-14 17:33N 44°06' E 009°52'0 0.0
2014-Sep-14 16:31N 44°06' E 009°52'0 0.0
2014-Sep-14 15:33N 44°06' E 009°52'0 0.0
2014-Sep-14 14:30N 44°06' E 009°52'0 0.0
2014-Sep-14 13:33N 44°06' E 009°52'0 0.0
2014-Sep-14 12:32N 44°06' E 009°52'0 0.0
2014-Sep-14 11:32N 44°06' E 009°52'0 0.0
2014-Sep-14 10:31N 44°06' E 009°52'0 0.0
2014-Sep-14 09:31N 44°06' E 009°52'0 0.0
2014-Sep-14 08:33N 44°06' E 009°52'0 0.0
2014-Sep-14 07:33N 44°06' E 009°52'0 0.0
2014-Sep-14 06:33N 44°06' E 009°52'0 0.0
2014-Sep-14 05:32N 44°06' E 009°52'0 0.0
2014-Sep-14 04:32N 44°06' E 009°52'0 0.0
2014-Sep-14 03:31N 44°06' E 009°52'0 0.0
2014-Sep-14 02:31N 44°06' E 009°52'0 0.0
2014-Sep-14 01:33N 44°06' E 009°52'0 0.0
2014-Sep-13 21:32N 44°06' E 009°52'0 0.0
2014-Sep-13 20:31N 44°06' E 009°52'0 0.0
2014-Sep-13 19:31N 44°06' E 009°52'0 0.0
2014-Sep-13 18:33N 44°06' E 009°52'0 0.0
2014-Sep-13 17:33N 44°06' E 009°52'0 0.0
2014-Sep-13 16:30N 44°06' E 009°52'  
Track history (hours):
 
Tides and Currents Weather Stations Pressure Air Temp Water Temp Dewpoint Dewpoint Depression Visibility Wind Speed Wind Dir Waves Ship Positions

Leonardo

Last reported at 2014-Sep-23 15:33 UTC. Time now 2014-Sep-23 16:26 UTC.
Position N 43°25' E 009°53'.

Length 28 m; draft 2.7 m.

MMSI: 247155800.

Date/timePositionNaut miles runAvg speedWind from/ knotsBaromVisibWave heightAir tempDewpointWater temp
2014-Sep-23 15:33N 43°25' E 009°53'1 0.9
2014-Sep-23 14:33N 43°26' E 009°53'0 0.1
2014-Sep-23 13:33N 43°26' E 009°53'1 1.0
2014-Sep-23 12:34N 43°27' E 009°54'7 7.5
2014-Sep-23 11:34N 43°29' E 010°04'9 8.6
2014-Sep-23 10:34N 43°31' E 010°15'3 2.6
2014-Sep-23 09:31N 43°33' E 010°19'0 0.0
2014-Sep-23 08:33N 43°33' E 010°19'0 0.0
2014-Sep-23 07:33N 43°33' E 010°19'0 0.0
2014-Sep-23 06:32N 43°33' E 010°19'0 0.0
2014-Sep-23 05:32N 43°33' E 010°19'0 0.0
2014-Sep-23 04:28N 43°33' E 010°19'0 0.0
2014-Sep-23 03:22N 43°33' E 010°19'0 0.0
2014-Sep-23 02:28N 43°33' E 010°19'0 0.0
2014-Sep-23 01:33N 43°33' E 010°19'0 0.0
2014-Sep-23 00:33N 43°33' E 010°19'0 0.0
2014-Sep-22 23:32N 43°33' E 010°19'0 0.0
2014-Sep-22 22:32N 43°33' E 010°19'1 0.4
2014-Sep-22 21:16N 43°33' E 010°18'0 0.0
2014-Sep-22 20:31N 43°33' E 010°18'0 0.0
2014-Sep-22 19:21N 43°33' E 010°18'0 0.0
2014-Sep-22 18:18N 43°33' E 010°18'0 0.0
2014-Sep-22 17:33N 43°33' E 010°18'0 0.0
2014-Sep-22 16:32N 43°33' E 010°18'0 0.0
2014-Sep-22 15:29N 43°33' E 010°18'2 2.5
2014-Sep-22 14:34N 43°31' E 010°16'8 8.0
2014-Sep-22 13:33N 43°28' E 010°06'8 7.6
2014-Sep-22 12:30N 43°26' E 009°55'0 0.1
2014-Sep-22 11:34N 43°26' E 009°55'0 0.1
2014-Sep-22 10:33N 43°26' E 009°55'1 0.7
2014-Sep-22 09:33N 43°26' E 009°56'7 6.7
2014-Sep-22 08:33N 43°28' E 010°05'7 6.9
2014-Sep-22 07:33N 43°30' E 010°14'4 4.2
2014-Sep-22 06:33N 43°33' E 010°18'0 0.1
2014-Sep-22 05:32N 43°33' E 010°18'0 0.0
2014-Sep-22 04:32N 43°33' E 010°18'0 0.0
2014-Sep-22 03:29N 43°33' E 010°18'0 0.0
2014-Sep-22 02:31N 43°33' E 010°18'0 0.0
2014-Sep-22 01:31N 43°33' E 010°18'0 0.0
2014-Sep-22 00:30N 43°33' E 010°18'0 0.0
2014-Sep-21 23:33N 43°33' E 010°18'0 0.0
2014-Sep-21 22:32N 43°33' E 010°18'0 0.0
2014-Sep-21 21:32N 43°33' E 010°18'0 0.0
2014-Sep-21 20:32N 43°33' E 010°18'0 0.0
2014-Sep-21 19:31N 43°33' E 010°18'0 0.0
2014-Sep-21 18:31N 43°33' E 010°18'0 0.0
2014-Sep-21 17:30N 43°33' E 010°18'0 0.0
2014-Sep-21 16:30N 43°33' E 010°18'0 0.0
2014-Sep-21 15:32N 43°33' E 010°18'0 0.0
2014-Sep-21 14:32N 43°33' E 010°18'0 0.0
2014-Sep-21 13:32N 43°33' E 010°18'0 0.0
2014-Sep-21 12:31N 43°33' E 010°18'0 0.0
2014-Sep-21 11:31N 43°33' E 010°18'0 0.0
2014-Sep-21 10:33N 43°33' E 010°18'0 0.0
2014-Sep-21 09:30N 43°33' E 010°18'0 0.0
2014-Sep-21 08:29N 43°33' E 010°18'0 0.0
2014-Sep-21 07:32N 43°33' E 010°18'0 0.0
2014-Sep-21 06:31N 43°33' E 010°18'0 0.0
2014-Sep-21 05:31N 43°33' E 010°18'0 0.0
2014-Sep-21 04:31N 43°33' E 010°18'0 0.0
2014-Sep-21 03:33N 43°33' E 010°18'0 0.0
2014-Sep-21 02:33N 43°33' E 010°18'0 0.0
2014-Sep-21 01:32N 43°33' E 010°18'0 0.0
2014-Sep-21 00:32N 43°33' E 010°18'0 0.0
2014-Sep-20 23:31N 43°33' E 010°18'0 0.0
2014-Sep-20 22:31N 43°33' E 010°18'0 0.0
2014-Sep-20 21:28N 43°33' E 010°18'0 0.0
2014-Sep-20 20:33N 43°33' E 010°18'0 0.0
2014-Sep-20 19:33N 43°33' E 010°18'0 0.0
2014-Sep-20 18:33N 43°33' E 010°18'3 3.1
2014-Sep-20 17:32N 43°31' E 010°15'8 7.7
2014-Sep-20 16:33N 43°28' E 010°05'8 8.0
2014-Sep-20 15:33N 43°25' E 009°55'1 1.2
2014-Sep-20 14:33N 43°25' E 009°53'1 1.2
2014-Sep-20 13:33N 43°24' E 009°54'1 1.2
2014-Sep-20 12:33N 43°25' E 009°54'0 0.2
2014-Sep-20 11:33N 43°25' E 009°55'1 0.7
2014-Sep-20 10:33N 43°26' E 009°55'0 0.0
2014-Sep-20 09:33N 43°26' E 009°55'3 2.5
2014-Sep-20 08:33N 43°27' E 009°58'8 8.0
2014-Sep-20 07:33N 43°30' E 010°08'1 1.5
2014-Sep-20 06:33N 43°31' E 010°10'6 6.4
2014-Sep-20 05:33N 43°33' E 010°18'0 0.0
2014-Sep-20 04:30N 43°33' E 010°18'0 0.0
2014-Sep-20 03:32N 43°33' E 010°18'0 0.0
2014-Sep-20 02:32N 43°33' E 010°18'0 0.0
2014-Sep-20 01:31N 43°33' E 010°18'0 0.0
2014-Sep-20 00:31N 43°33' E 010°18'0 0.0
2014-Sep-19 23:30N 43°33' E 010°18'0 0.0
2014-Sep-19 22:27N 43°33' E 010°18'0 0.0
2014-Sep-19 21:27N 43°33' E 010°18'0 0.0
2014-Sep-19 20:32N 43°33' E 010°18'0 0.0
2014-Sep-19 19:32N 43°33' E 010°18'0 0.0
2014-Sep-19 18:31N 43°33' E 010°18'0 0.0
2014-Sep-19 17:28N 43°33' E 010°18'0 0.0
2014-Sep-19 16:30N 43°33' E 010°18'0 0.1
2014-Sep-19 15:30N 43°33' E 010°18'0 0.0
2014-Sep-19 14:33N 43°33' E 010°18'0 0.0
2014-Sep-19 13:29N 43°33' E 010°18'0 0.0
2014-Sep-19 12:32N 43°33' E 010°18'0 0.0
2014-Sep-19 11:31N 43°33' E 010°18'0 0.0
2014-Sep-19 10:31N 43°33' E 010°18'0 0.0
2014-Sep-19 09:30N 43°33' E 010°18'0 0.0
2014-Sep-19 08:33N 43°33' E 010°18'0 0.0
2014-Sep-19 07:33N 43°33' E 010°18'0 0.0
2014-Sep-19 06:32N 43°33' E 010°18'0 0.0
2014-Sep-19 05:29N 43°33' E 010°18'0 0.0
2014-Sep-19 04:31N 43°33' E 010°18'0 0.0
2014-Sep-19 03:31N 43°33' E 010°18'0 0.0
2014-Sep-19 02:30N 43°33' E 010°18'0 0.0
2014-Sep-19 01:33N 43°33' E 010°18'0 0.0
2014-Sep-19 00:33N 43°33' E 010°18'0 0.0
2014-Sep-18 23:32N 43°33' E 010°18'0 0.0
2014-Sep-18 22:32N 43°33' E 010°18'0 0.0
2014-Sep-18 21:31N 43°33' E 010°18'0 0.0
2014-Sep-18 20:31N 43°33' E 010°18'0 0.0
2014-Sep-18 19:24N 43°33' E 010°18'0 0.0
2014-Sep-18 18:33N 43°33' E 010°18'0 0.0
2014-Sep-18 17:32N 43°33' E 010°18'0 0.0
2014-Sep-18 16:29N 43°33' E 010°18'0 0.0
2014-Sep-18 15:29N 43°33' E 010°18'0 0.0
2014-Sep-18 14:33N 43°33' E 010°18'0 0.0
2014-Sep-18 13:33N 43°33' E 010°18'5 5.3
2014-Sep-18 12:34N 43°30' E 010°12'8 7.5
2014-Sep-18 11:32N 43°28' E 010°02'6 5.8
2014-Sep-18 10:33N 43°27' E 009°54'1 1.0
2014-Sep-18 09:34N 43°26' E 009°55'0 0.2
2014-Sep-18 08:33N 43°26' E 009°55'1 0.7
2014-Sep-18 07:34N 43°26' E 009°56'7 7.2
2014-Sep-18 06:33N 43°28' E 010°05'8 8.1
2014-Sep-18 05:33N 43°32' E 010°15'2 2.2
2014-Sep-18 04:31N 43°33' E 010°18'0 0.0
2014-Sep-18 03:31N 43°33' E 010°18'0 0.0
2014-Sep-18 02:33N 43°33' E 010°18'0 0.0
2014-Sep-18 01:33N 43°33' E 010°18'0 0.0
2014-Sep-18 00:32N 43°33' E 010°18'0 0.0
2014-Sep-17 23:32N 43°33' E 010°18'0 0.0
2014-Sep-17 22:32N 43°33' E 010°18'0 0.0
2014-Sep-17 21:31N 43°33' E 010°18'0 0.0
2014-Sep-17 20:28N 43°33' E 010°18'0 0.0
2014-Sep-17 19:33N 43°33' E 010°18'0 0.0
2014-Sep-17 18:33N 43°33' E 010°18'0 0.0
2014-Sep-17 17:33N 43°33' E 010°18'5 5.0
2014-Sep-17 16:33N 43°30' E 010°13'8 8.1
2014-Sep-17 15:33N 43°27' E 010°02'5 5.2
2014-Sep-17 14:33N 43°26' E 009°55'0 0.0
2014-Sep-17 13:33N 43°26' E 009°55'4 4.2
2014-Sep-17 12:33N 43°30' E 009°56'8 7.8
2014-Sep-17 11:33N 43°38' E 009°54'8 8.0
2014-Sep-17 10:33N 43°46' E 009°54'8 7.7
2014-Sep-17 09:33N 43°53' E 009°53'3 2.8
2014-Sep-17 08:33N 43°56' E 009°53'4 4.2
2014-Sep-17 07:33N 44°00' E 009°53'6 6.1
2014-Sep-17 06:33N 44°06' E 009°49'0 0.0
2014-Sep-17 05:33N 44°06' E 009°49'0 0.0
2014-Sep-17 04:30N 44°06' E 009°49'0 0.0
2014-Sep-17 03:33N 44°06' E 009°49'0 0.0
2014-Sep-17 02:32N 44°06' E 009°49'0 0.0
2014-Sep-17 01:32N 44°06' E 009°49'0 0.0
2014-Sep-17 00:31N 44°06' E 009°49'0 0.0
2014-Sep-16 23:31N 44°06' E 009°49'0 0.0
2014-Sep-16 22:30N 44°06' E 009°49'0 0.0
2014-Sep-16 21:33N 44°06' E 009°49'0 0.0
2014-Sep-16 20:33N 44°06' E 009°49'0 0.0
2014-Sep-16 19:32N 44°06' E 009°49'0 0.0
2014-Sep-16 18:32N 44°06' E 009°49'0 0.0
2014-Sep-16 17:31N 44°06' E 009°49'0 0.0
2014-Sep-16 16:31N 44°06' E 009°49'0 0.0
2014-Sep-16 15:33N 44°06' E 009°49'0 0.0
2014-Sep-16 14:30N 44°06' E 009°49'0 0.0
2014-Sep-16 13:32N 44°06' E 009°49'0 0.0
2014-Sep-16 12:32N 44°06' E 009°49'0 0.1
2014-Sep-16 11:32N 44°06' E 009°49'0 0.0
2014-Sep-16 10:31N 44°06' E 009°49'0 0.0
2014-Sep-16 09:31N 44°06' E 009°49'0 0.0
2014-Sep-16 08:33N 44°06' E 009°49'0 0.0
2014-Sep-16 07:33N 44°06' E 009°49'0 0.0
2014-Sep-16 06:32N 44°06' E 009°49'0 0.0
2014-Sep-16 05:29N 44°06' E 009°49'0 0.0
2014-Sep-16 04:32N 44°06' E 009°49'0 0.0
2014-Sep-16 03:31N 44°06' E 009°49'0 0.0
2014-Sep-16 02:31N 44°06' E 009°49'0 0.0
2014-Sep-16 01:33N 44°06' E 009°49'0 0.0
2014-Sep-16 00:33N 44°06' E 009°49'0 0.0
2014-Sep-15 23:32N 44°06' E 009°49'0 0.0
2014-Sep-15 22:32N 44°06' E 009°49'0 0.0
2014-Sep-15 21:28N 44°06' E 009°49'0 0.0
2014-Sep-15 20:31N 44°06' E 009°49'0 0.0
2014-Sep-15 19:31N 44°06' E 009°49'0 0.0
2014-Sep-15 18:33N 44°06' E 009°49'0 0.0
2014-Sep-15 17:33N 44°06' E 009°49'0 0.0
2014-Sep-15 16:32N 44°06' E 009°49'0 0.0
2014-Sep-15 15:32N 44°06' E 009°49'0 0.0
2014-Sep-15 14:32N 44°06' E 009°49'0 0.0
2014-Sep-15 13:31N 44°06' E 009°49'0 0.0
2014-Sep-15 12:31N 44°06' E 009°49'0 0.3
2014-Sep-15 11:33N 44°05' E 009°50'0 0.0
2014-Sep-15 10:33N 44°05' E 009°50'0 0.0
2014-Sep-15 09:33N 44°05' E 009°50'0 0.0
2014-Sep-15 08:34N 44°05' E 009°50'0 0.0
2014-Sep-15 07:34N 44°05' E 009°50'0 0.0
2014-Sep-15 06:34N 44°05' E 009°50'2 1.6
2014-Sep-15 05:31N 44°06' E 009°52'0 0.0
2014-Sep-15 04:33N 44°06' E 009°52'0 0.0
2014-Sep-15 03:33N 44°06' E 009°52'0 0.0
2014-Sep-15 02:32N 44°06' E 009°52'0 0.0
2014-Sep-15 01:32N 44°06' E 009°52'0 0.0
2014-Sep-15 00:31N 44°06' E 009°52'0 0.0
2014-Sep-14 23:31N 44°06' E 009°52'0 0.0
2014-Sep-14 22:34N 44°06' E 009°52'0 0.0
2014-Sep-14 21:33N 44°06' E 009°52'0 0.0
2014-Sep-14 20:33N 44°06' E 009°52'0 0.0
2014-Sep-14 19:32N 44°06' E 009°52'0 0.0
2014-Sep-14 18:32N 44°06' E 009°52'0 0.0
2014-Sep-14 17:33N 44°06' E 009°52'0 0.0
2014-Sep-14 16:31N 44°06' E 009°52'0 0.0
2014-Sep-14 15:33N 44°06' E 009°52'0 0.0
2014-Sep-14 14:30N 44°06' E 009°52'0 0.0
2014-Sep-14 13:33N 44°06' E 009°52'0 0.0
2014-Sep-14 12:32N 44°06' E 009°52'0 0.0
2014-Sep-14 11:32N 44°06' E 009°52'0 0.0
2014-Sep-14 10:31N 44°06' E 009°52'0 0.0
2014-Sep-14 09:31N 44°06' E 009°52'0 0.0
2014-Sep-14 08:33N 44°06' E 009°52'0 0.0
2014-Sep-14 07:33N 44°06' E 009°52'0 0.0
2014-Sep-14 06:33N 44°06' E 009°52'0 0.0
2014-Sep-14 05:32N 44°06' E 009°52'0 0.0
2014-Sep-14 04:32N 44°06' E 009°52'0 0.0
2014-Sep-14 03:31N 44°06' E 009°52'0 0.0
2014-Sep-14 02:31N 44°06' E 009°52'0 0.0
2014-Sep-14 01:33N 44°06' E 009°52'0 0.0
2014-Sep-13 21:32N 44°06' E 009°52'0 0.0
2014-Sep-13 20:31N 44°06' E 009°52'0 0.0
2014-Sep-13 19:31N 44°06' E 009°52'0 0.0
2014-Sep-13 18:33N 44°06' E 009°52'0 0.0
2014-Sep-13 17:33N 44°06' E 009°52'0 0.0
2014-Sep-13 16:30N 44°06' E 009°52'  

Dump ship's entire track history